createdAt,value
2022-09-27T06:06:19.729Z,10.53
2022-09-27T06:09:02.903Z,10.54
2022-09-27T06:11:41.868Z,10.58
2022-09-27T06:14:22.829Z,10.60
2022-09-27T06:17:22.260Z,10.63
2022-09-27T06:19:59.349Z,10.69
2022-09-27T06:22:39.332Z,10.69
2022-09-27T06:25:16.839Z,10.70
2022-09-27T06:28:10.248Z,10.75
2022-09-27T06:30:50.971Z,10.74
2022-09-27T06:33:46.375Z,10.69
2022-09-27T06:36:24.298Z,10.68
2022-09-27T06:39:04.116Z,10.68
2022-09-27T06:41:58.150Z,10.68
2022-09-27T06:44:40.998Z,10.70
2022-09-27T06:47:40.057Z,10.75
2022-09-27T06:50:48.187Z,10.77
2022-09-27T06:53:25.059Z,10.82
2022-09-27T06:56:05.970Z,10.88
2022-09-27T06:59:06.810Z,10.92
2022-09-27T07:01:52.843Z,10.94
2022-09-27T07:05:10.771Z,11.01
2022-09-27T07:08:10.339Z,11.00
2022-09-27T07:10:47.725Z,11.04
2022-09-27T07:13:30.576Z,11.06
2022-09-27T07:16:08.185Z,11.08
2022-09-27T07:18:45.607Z,11.07
2022-09-27T07:21:23.739Z,11.16
2022-09-27T07:24:00.551Z,11.22
2022-09-27T07:26:37.928Z,11.27
2022-09-27T07:29:19.972Z,11.31
2022-09-27T07:31:58.915Z,11.36
2022-09-27T07:34:37.702Z,11.37
2022-09-27T07:37:14.755Z,11.43
2022-09-27T07:39:51.532Z,11.48
2022-09-27T07:42:29.140Z,11.53
2022-09-27T07:45:11.753Z,11.63
2022-09-27T07:47:59.713Z,11.67
2022-09-27T07:51:14.160Z,11.74
2022-09-27T07:53:54.427Z,11.79
2022-09-27T07:56:41.207Z,11.88
2022-09-27T07:59:21.407Z,11.88
2022-09-27T08:02:01.397Z,11.94
2022-09-27T08:04:38.554Z,11.96
2022-09-27T08:07:15.377Z,12.00
2022-09-27T08:09:55.346Z,12.05
2022-09-27T08:12:32.297Z,12.12
2022-09-27T08:15:11.091Z,12.23
2022-09-27T08:17:51.157Z,12.24
2022-09-27T08:20:36.709Z,12.28
2022-09-27T08:23:28.103Z,12.31
2022-09-27T08:26:19.945Z,12.37
2022-09-27T08:29:22.556Z,12.40
2022-09-27T08:32:02.785Z,12.45
2022-09-27T08:34:42.741Z,12.51
2022-09-27T08:37:20.958Z,12.56
2022-09-27T08:40:00.258Z,12.60
2022-09-27T08:42:50.378Z,12.66
2022-09-27T08:45:34.425Z,12.69
2022-09-27T08:48:15.069Z,12.77
2022-09-27T08:50:54.875Z,12.86
2022-09-27T08:53:40.219Z,12.97
2022-09-27T08:56:21.628Z,13.09
2022-09-27T08:59:05.531Z,13.17
2022-09-27T09:01:44.557Z,13.34
2022-09-27T09:04:34.349Z,13.50
2022-09-27T09:07:38.775Z,13.64
2022-09-27T09:10:48.666Z,13.79
2022-09-27T09:13:41.549Z,13.85
2022-09-27T09:16:25.285Z,13.99
2022-09-27T09:19:30.420Z,14.08
2022-09-27T09:22:46.668Z,14.25
2022-09-27T09:25:34.440Z,14.41
2022-09-27T09:28:30.778Z,14.58
2022-09-27T09:31:18.675Z,14.67
2022-09-27T09:34:02.898Z,14.66
2022-09-27T09:36:46.877Z,14.68
2022-09-27T09:39:31.801Z,14.69
2022-09-27T09:42:15.198Z,14.67
2022-09-27T09:44:59.082Z,14.72
2022-09-27T09:47:43.857Z,14.79
2022-09-27T09:50:27.299Z,15.07
2022-09-27T09:53:15.309Z,15.47
2022-09-27T09:56:01.044Z,15.94
2022-09-27T09:58:45.808Z,16.46
2022-09-27T10:01:31.130Z,16.94
2022-09-27T10:04:08.320Z,17.23
2022-09-27T10:06:45.876Z,17.58
2022-09-27T10:09:30.108Z,17.78
2022-09-27T10:12:28.527Z,17.97
2022-09-27T10:15:09.396Z,18.18
2022-09-27T10:17:53.998Z,18.23
2022-09-27T10:20:36.692Z,18.40
2022-09-27T10:23:19.979Z,18.55
2022-09-27T10:26:31.989Z,18.71
2022-09-27T10:29:38.034Z,18.88
2022-09-27T10:32:31.206Z,18.92
2022-09-27T10:35:42.617Z,18.89
2022-09-27T10:38:29.679Z,18.83
2022-09-27T10:41:29.321Z,18.94
2022-09-27T10:44:29.373Z,18.90
2022-09-27T10:47:32.587Z,18.78
2022-09-27T10:50:46.013Z,18.53
2022-09-27T10:53:50.959Z,18.29
2022-09-27T10:56:38.118Z,18.18
2022-09-27T10:59:22.901Z,18.01
2022-09-27T11:02:02.911Z,17.73
2022-09-27T11:05:15.528Z,17.57
2022-09-27T11:07:57.830Z,17.36
2022-09-27T11:11:20.369Z,17.15
2022-09-27T11:14:08.429Z,16.97
2022-09-27T11:17:22.436Z,16.90
2022-09-27T11:20:29.047Z,16.84
2022-09-27T11:23:30.836Z,16.73
2022-09-27T11:26:27.351Z,16.64
2022-09-27T11:29:26.166Z,16.70
2022-09-27T11:32:42.201Z,16.62
2022-09-27T11:35:57.384Z,16.62
2022-09-27T11:38:52.650Z,16.58
2022-09-27T11:41:55.918Z,16.59
2022-09-27T11:45:31.858Z,16.63
2022-09-27T11:48:19.238Z,16.66
2022-09-27T11:51:14.997Z,16.66
2022-09-27T11:54:05.557Z,16.62
2022-09-27T11:56:55.824Z,16.64
2022-09-27T12:00:10.440Z,16.69
2022-09-27T12:03:38.827Z,16.81
2022-09-27T12:06:25.135Z,16.84
2022-09-27T12:09:10.320Z,16.89
2022-09-27T12:11:54.182Z,16.87
2022-09-27T12:14:40.018Z,16.89
2022-09-27T12:17:20.883Z,16.89
2022-09-27T12:20:02.021Z,16.92
2022-09-27T12:23:00.007Z,16.83
2022-09-27T12:25:56.597Z,16.81
2022-09-27T12:28:46.811Z,16.76
2022-09-27T12:31:30.743Z,16.77
2022-09-27T12:34:20.567Z,16.67
2022-09-27T12:37:08.171Z,16.66
2022-09-27T12:39:56.509Z,16.60
2022-09-27T12:42:45.488Z,16.55
2022-09-27T12:45:47.387Z,16.53
2022-09-27T12:48:36.232Z,16.51
2022-09-27T12:51:17.552Z,16.51
2022-09-27T12:54:24.648Z,16.51
2022-09-27T12:57:18.303Z,16.51
2022-09-27T13:00:13.061Z,16.46
2022-09-27T13:03:35.671Z,16.45
2022-09-27T13:07:06.933Z,16.43
2022-09-27T13:10:53.728Z,16.47
2022-09-27T13:13:51.026Z,16.50
2022-09-27T13:16:48.414Z,16.51
2022-09-27T13:19:49.515Z,16.55
2022-09-27T13:22:51.513Z,16.57
2022-09-27T13:25:56.972Z,16.63
2022-09-27T13:29:27.192Z,16.69
2022-09-27T13:32:33.481Z,16.68
2022-09-27T13:35:24.787Z,16.71
2022-09-27T13:38:26.427Z,16.68
2022-09-27T13:41:19.342Z,16.73
2022-09-27T13:44:15.245Z,16.76
2022-09-27T13:47:01.604Z,16.86
2022-09-27T13:49:43.085Z,16.98
2022-09-27T13:52:28.509Z,17.11
2022-09-27T13:55:51.209Z,17.26
2022-09-27T13:58:58.145Z,17.34
2022-09-27T14:02:03.750Z,17.44
2022-09-27T14:04:49.699Z,17.47
2022-09-27T14:07:31.038Z,17.46
2022-09-27T14:10:15.730Z,17.41
2022-09-27T14:12:56.467Z,17.36
2022-09-27T14:15:35.513Z,17.30
2022-09-27T14:18:18.475Z,17.26
2022-09-27T14:21:11.887Z,17.18
2022-09-27T14:24:32.517Z,17.15
2022-09-27T14:27:21.583Z,17.07
2022-09-27T14:30:09.961Z,17.01
2022-09-27T14:32:54.599Z,16.96
2022-09-27T14:36:07.719Z,16.99
2022-09-27T14:38:49.191Z,16.99
2022-09-27T14:41:40.076Z,17.09
2022-09-27T14:44:27.302Z,17.19
2022-09-27T14:47:23.018Z,17.24
2022-09-27T14:50:05.782Z,17.22
2022-09-27T14:52:47.799Z,17.27
2022-09-27T14:55:35.270Z,17.31
2022-09-27T14:58:42.912Z,17.26
2022-09-27T15:01:21.499Z,17.22
2022-09-27T15:03:59.474Z,17.21
2022-09-27T15:06:39.221Z,17.22
2022-09-27T15:09:23.176Z,17.19
2022-09-27T15:12:05.747Z,17.16
2022-09-27T15:14:50.546Z,17.09
2022-09-27T15:17:31.096Z,17.01
2022-09-27T15:20:25.280Z,16.98
2022-09-27T15:23:05.056Z,16.95
2022-09-27T15:26:00.809Z,16.92
2022-09-27T15:28:46.006Z,16.92
2022-09-27T15:31:33.346Z,16.93
2022-09-27T15:34:21.227Z,16.90
2022-09-27T15:37:00.957Z,16.90
2022-09-27T15:39:43.346Z,16.85
2022-09-27T15:42:22.951Z,16.85
2022-09-27T15:45:01.006Z,16.81
2022-09-27T15:47:54.204Z,16.77
2022-09-27T15:50:41.826Z,16.77
2022-09-27T15:53:48.464Z,16.72
2022-09-27T15:56:25.674Z,16.70
2022-09-27T15:59:06.026Z,16.67
2022-09-27T16:01:43.290Z,16.59
2022-09-27T16:04:21.056Z,16.53
2022-09-27T16:07:10.320Z,16.49
2022-09-27T16:09:51.878Z,16.48
2022-09-27T16:12:35.494Z,16.43
2022-09-27T16:15:16.048Z,16.41
2022-09-27T16:17:53.256Z,16.36
2022-09-27T16:20:32.450Z,16.30
2022-09-27T16:23:09.929Z,16.29
2022-09-27T16:25:46.674Z,16.24
2022-09-27T16:28:24.292Z,16.21
2022-09-27T16:31:12.040Z,16.16
2022-09-27T16:33:52.802Z,16.13
2022-09-27T16:36:29.625Z,16.10
2022-09-27T16:39:08.161Z,16.03
2022-09-27T16:41:46.746Z,16.03
2022-09-27T16:44:24.177Z,15.99
2022-09-27T16:47:05.079Z,15.98
2022-09-27T16:49:55.966Z,15.99
2022-09-27T16:52:35.884Z,15.87
2022-09-27T16:55:13.761Z,15.78
2022-09-27T16:57:51.654Z,15.75
2022-09-27T17:00:33.866Z,15.71
2022-09-27T17:03:13.723Z,15.66
2022-09-27T17:05:51.587Z,15.63
2022-09-27T17:08:30.823Z,15.60
2022-09-27T17:11:08.450Z,15.55
2022-09-27T17:13:49.876Z,15.61
2022-09-27T17:16:29.757Z,15.66
2022-09-27T17:19:09.676Z,15.64
2022-09-27T17:21:50.978Z,15.56
2022-09-27T17:24:29.991Z,15.53
2022-09-27T17:27:08.536Z,15.50
2022-09-27T17:29:46.322Z,15.44
2022-09-27T17:32:25.796Z,15.40
2022-09-27T17:35:08.539Z,15.38
2022-09-27T17:37:45.750Z,15.34
2022-09-27T17:40:23.853Z,15.32
